createdAt,value
2018-02-11T00:02:09.317Z,2.90
2018-02-11T00:04:37.375Z,2.90
2018-02-11T00:07:05.458Z,2.80
2018-02-11T00:09:33.497Z,2.90
2018-02-11T00:12:02.321Z,2.90
2018-02-11T00:14:30.445Z,2.80
2018-02-11T00:16:58.523Z,2.80
2018-02-11T00:19:26.766Z,2.70
2018-02-11T00:21:54.878Z,2.70
2018-02-11T00:24:22.942Z,2.70
2018-02-11T00:26:51.045Z,2.70
2018-02-11T00:29:19.068Z,2.80
2018-02-11T00:31:47.266Z,2.90
2018-02-11T00:34:16.108Z,2.90
2018-02-11T00:36:49.888Z,2.90
2018-02-11T00:39:18.710Z,2.80
2018-02-11T00:41:46.772Z,2.80
2018-02-11T00:44:14.828Z,2.80
2018-02-11T00:46:42.956Z,2.90
2018-02-11T00:49:11.007Z,2.90
2018-02-11T00:51:39.121Z,3.00
2018-02-11T00:54:07.181Z,3.00
2018-02-11T00:56:35.263Z,3.00
2018-02-11T00:59:03.327Z,3.00
2018-02-11T01:01:31.391Z,3.00
2018-02-11T01:03:59.994Z,3.00
2018-02-11T01:06:28.046Z,3.20
2018-02-11T01:08:56.110Z,3.10
2018-02-11T01:11:24.150Z,3.00
2018-02-11T01:13:52.228Z,3.00
2018-02-11T01:16:20.285Z,2.90
2018-02-11T01:18:48.358Z,3.00
2018-02-11T01:21:16.402Z,2.90
2018-02-11T01:23:44.451Z,2.90
2018-02-11T01:26:12.866Z,2.90
2018-02-11T01:28:40.903Z,3.00
2018-02-11T01:31:08.943Z,3.00
2018-02-11T01:33:37.053Z,3.00
2018-02-11T01:36:05.108Z,3.00
2018-02-11T01:38:33.173Z,2.90
2018-02-11T01:41:01.220Z,2.90
2018-02-11T01:43:30.031Z,2.80
2018-02-11T01:45:58.115Z,2.80
2018-02-11T01:48:26.175Z,2.90
2018-02-11T01:50:54.424Z,2.90
2018-02-11T01:53:22.477Z,2.90
2018-02-11T01:55:50.531Z,2.90
2018-02-11T01:58:18.608Z,2.90
2018-02-11T02:00:46.764Z,2.80
2018-02-11T02:03:14.916Z,2.90
2018-02-11T02:05:42.961Z,2.80
2018-02-11T02:08:11.008Z,2.70
2018-02-11T02:10:39.062Z,2.70
2018-02-11T02:13:07.144Z,2.70
2018-02-11T02:15:35.237Z,2.70
2018-02-11T02:18:03.251Z,2.60
2018-02-11T02:20:31.431Z,2.60
2018-02-11T02:22:59.479Z,2.70
2018-02-11T02:25:28.298Z,2.70
2018-02-11T02:27:56.375Z,2.70
2018-02-11T02:30:24.419Z,2.70
2018-02-11T02:32:52.467Z,2.70
2018-02-11T02:35:20.918Z,2.60
2018-02-11T02:37:48.972Z,2.70
2018-02-11T02:40:17.032Z,2.70
2018-02-11T02:42:45.850Z,2.80
2018-02-11T02:45:14.677Z,2.60
2018-02-11T02:47:42.758Z,2.60
2018-02-11T02:50:10.790Z,2.70
2018-02-11T02:52:38.885Z,2.70
2018-02-11T02:55:07.712Z,2.60
2018-02-11T02:57:36.532Z,2.60
2018-02-11T03:00:04.676Z,2.60
2018-02-11T03:02:32.905Z,2.60
2018-02-11T03:05:00.961Z,2.60
2018-02-11T03:07:29.007Z,2.60
2018-02-11T03:09:57.059Z,2.60
2018-02-11T03:12:25.161Z,2.60
2018-02-11T03:14:53.190Z,2.60
2018-02-11T03:17:21.987Z,2.60
2018-02-11T03:19:50.870Z,2.60
2018-02-11T03:22:18.892Z,2.60
2018-02-11T03:24:49.315Z,2.60
2018-02-11T03:27:18.140Z,2.50
2018-02-11T03:29:46.417Z,2.50
2018-02-11T03:32:14.489Z,2.60
2018-02-11T03:34:43.313Z,2.50
2018-02-11T03:37:11.378Z,2.50
2018-02-11T03:39:39.426Z,2.50
2018-02-11T03:42:07.475Z,2.50
2018-02-11T03:44:35.528Z,2.40
2018-02-11T03:47:04.343Z,2.50
2018-02-11T03:49:32.378Z,2.40
2018-02-11T03:52:00.424Z,2.40
2018-02-11T03:54:28.475Z,2.40
2018-02-11T03:56:56.528Z,2.40
2018-02-11T03:59:25.199Z,2.40
2018-02-11T04:01:54.179Z,2.30
2018-02-11T04:04:22.965Z,2.30
2018-02-11T04:06:51.023Z,2.30
2018-02-11T04:09:19.844Z,2.20
2018-02-11T04:11:47.899Z,2.20
2018-02-11T04:14:16.006Z,2.20
2018-02-11T04:16:44.050Z,2.20
2018-02-11T04:19:12.097Z,2.20
2018-02-11T04:21:40.159Z,2.20
2018-02-11T04:24:08.193Z,2.20
2018-02-11T04:26:36.255Z,2.30
2018-02-11T04:29:04.335Z,2.20
2018-02-11T04:31:32.590Z,2.20
2018-02-11T04:34:00.665Z,2.20
2018-02-11T04:36:30.397Z,2.30
2018-02-11T04:38:58.438Z,2.30
2018-02-11T04:41:26.499Z,2.30
2018-02-11T04:43:54.574Z,2.10
2018-02-11T04:46:23.356Z,2.10
2018-02-11T04:48:51.394Z,2.10
2018-02-11T04:51:19.460Z,2.20
2018-02-11T04:53:47.507Z,2.20
2018-02-11T04:56:15.546Z,2.10
2018-02-11T04:58:43.619Z,2.10
2018-02-11T05:01:11.675Z,2.10
2018-02-11T05:03:39.736Z,2.10
2018-02-11T05:06:07.844Z,2.10
2018-02-11T05:08:35.894Z,2.10
2018-02-11T05:11:04.733Z,2.10
2018-02-11T05:13:32.787Z,2.00
2018-02-11T05:16:00.822Z,2.10
2018-02-11T05:18:30.971Z,2.10
2018-02-11T05:20:59.010Z,2.10
2018-02-11T05:23:27.058Z,2.00
2018-02-11T05:25:55.155Z,1.90
2018-02-11T05:28:23.202Z,1.90
2018-02-11T05:30:51.258Z,1.90
2018-02-11T05:33:19.317Z,1.90
2018-02-11T05:35:48.254Z,1.90
2018-02-11T05:38:16.332Z,1.90
2018-02-11T05:40:44.382Z,1.90
2018-02-11T05:43:12.445Z,1.90
2018-02-11T05:45:40.499Z,1.90
2018-02-11T05:48:08.611Z,2.00
2018-02-11T05:50:37.913Z,2.00
2018-02-11T05:53:06.710Z,2.00
2018-02-11T05:55:35.522Z,2.00
2018-02-11T05:58:04.351Z,2.00
2018-02-11T06:00:32.386Z,2.00
2018-02-11T06:03:00.476Z,2.00
2018-02-11T06:05:28.510Z,2.00
2018-02-11T06:07:56.604Z,2.00
2018-02-11T06:10:24.654Z,2.00
2018-02-11T06:12:52.737Z,2.00
2018-02-11T06:15:21.530Z,2.00
2018-02-11T06:17:49.574Z,2.00
2018-02-11T06:20:17.626Z,2.00
2018-02-11T06:22:45.670Z,2.00
2018-02-11T06:25:14.489Z,2.10
2018-02-11T06:27:42.539Z,2.10
2018-02-11T06:30:11.368Z,2.10
2018-02-11T06:32:39.412Z,2.10
2018-02-11T06:35:07.455Z,2.20
2018-02-11T06:37:36.270Z,2.30
2018-02-11T06:40:04.318Z,2.20
2018-02-11T06:42:33.151Z,2.20
2018-02-11T06:45:01.202Z,2.10
2018-02-11T06:47:29.243Z,2.20
2018-02-11T06:49:57.291Z,2.20
2018-02-11T06:52:25.363Z,2.10
2018-02-11T06:54:53.421Z,2.10
2018-02-11T06:57:21.485Z,2.10
2018-02-11T06:59:50.305Z,2.20
2018-02-11T07:02:18.345Z,2.20
2018-02-11T07:04:46.414Z,2.10
2018-02-11T07:07:14.451Z,2.10
2018-02-11T07:09:47.318Z,2.10
2018-02-11T07:12:15.375Z,2.20
2018-02-11T07:14:43.467Z,2.10
2018-02-11T07:17:11.548Z,2.30
2018-02-11T07:19:39.583Z,2.30
2018-02-11T07:22:07.633Z,2.40
2018-02-11T07:24:35.703Z,2.30
2018-02-11T07:27:03.734Z,2.30
2018-02-11T07:29:31.792Z,2.30
2018-02-11T07:31:59.839Z,2.30
2018-02-11T07:34:27.880Z,2.30
2018-02-11T07:36:56.685Z,2.30
2018-02-11T07:39:24.735Z,2.30
2018-02-11T07:41:52.795Z,2.30
2018-02-11T07:44:21.011Z,2.30
2018-02-11T07:46:49.833Z,2.30
2018-02-11T07:49:17.878Z,2.20
2018-02-11T07:51:46.002Z,2.30
2018-02-11T07:54:14.050Z,2.30
2018-02-11T07:56:42.716Z,2.30
2018-02-11T07:59:11.535Z,2.40
2018-02-11T08:01:39.567Z,2.30
2018-02-11T08:04:07.668Z,2.40
2018-02-11T08:06:35.689Z,2.50
2018-02-11T08:09:03.750Z,2.60
2018-02-11T08:11:31.999Z,2.60
2018-02-11T08:14:00.856Z,2.60
2018-02-11T08:16:28.899Z,2.60
2018-02-11T08:18:56.937Z,2.70
2018-02-11T08:21:25.014Z,2.80
2018-02-11T08:23:53.062Z,2.80
2018-02-11T08:26:21.137Z,2.80
2018-02-11T08:28:49.188Z,2.80
2018-02-11T08:31:18.017Z,2.90
2018-02-11T08:33:46.078Z,2.80
2018-02-11T08:36:14.888Z,2.90
2018-02-11T08:38:42.952Z,2.90
2018-02-11T08:41:11.776Z,3.10
2018-02-11T08:43:39.811Z,3.10
2018-02-11T08:46:07.975Z,3.10
2018-02-11T08:48:36.029Z,3.10
2018-02-11T08:51:04.846Z,3.10
2018-02-11T08:53:32.928Z,3.10
2018-02-11T08:56:00.975Z,3.30
2018-02-11T08:58:29.804Z,3.40
2018-02-11T09:00:57.855Z,3.30
2018-02-11T09:03:25.897Z,3.40
2018-02-11T09:05:53.938Z,3.30
2018-02-11T09:08:22.004Z,3.40
2018-02-11T09:10:50.843Z,3.60
2018-02-11T09:13:18.887Z,3.50
2018-02-11T09:15:47.719Z,3.60
2018-02-11T09:18:15.772Z,3.60
2018-02-11T09:20:44.589Z,3.60
2018-02-11T09:23:13.168Z,3.60
2018-02-11T09:25:41.988Z,3.60
2018-02-11T09:28:10.046Z,3.60
2018-02-11T09:30:38.099Z,3.60
2018-02-11T09:33:06.416Z,3.70
2018-02-11T09:35:34.476Z,3.60
2018-02-11T09:38:02.530Z,3.60
2018-02-11T09:40:30.591Z,3.60
2018-02-11T09:42:58.651Z,3.70
2018-02-11T09:45:26.925Z,3.70
2018-02-11T09:47:54.974Z,3.70
2018-02-11T09:50:23.020Z,3.90
2018-02-11T09:52:51.872Z,3.90
2018-02-11T09:55:19.980Z,3.90
2018-02-11T09:57:48.187Z,3.90
2018-02-11T10:00:16.477Z,3.90
2018-02-11T10:02:44.528Z,3.90
2018-02-11T10:05:12.588Z,3.90
2018-02-11T10:07:41.742Z,3.90
2018-02-11T10:10:10.819Z,4.00
2018-02-11T10:12:39.116Z,4.00
2018-02-11T10:15:07.158Z,4.10
2018-02-11T10:17:35.262Z,4.20
2018-02-11T10:20:03.321Z,4.30
2018-02-11T10:22:31.357Z,4.30
2018-02-11T10:24:59.422Z,4.50
2018-02-11T10:27:27.482Z,4.60
2018-02-11T10:29:55.533Z,4.60
2018-02-11T10:32:24.349Z,4.60
2018-02-11T10:34:52.512Z,4.60
2018-02-11T10:37:21.326Z,4.60
2018-02-11T10:39:49.383Z,4.60
2018-02-11T10:42:17.435Z,4.70
2018-02-11T10:44:45.509Z,4.70
2018-02-11T10:47:13.547Z,4.80
2018-02-11T10:49:42.410Z,4.90
2018-02-11T10:52:10.466Z,4.90
2018-02-11T10:54:38.532Z,4.90
2018-02-11T10:57:07.363Z,5.10
2018-02-11T10:59:35.627Z,5.10
2018-02-11T11:02:03.694Z,5.20
2018-02-11T11:04:32.512Z,5.40
2018-02-11T11:07:00.568Z,5.40
2018-02-11T11:09:29.382Z,5.40
2018-02-11T11:11:57.429Z,5.40
2018-02-11T11:14:25.583Z,5.50
2018-02-11T11:16:54.468Z,5.50
2018-02-11T11:19:22.539Z,5.50
2018-02-11T11:21:50.624Z,5.60
2018-02-11T11:24:18.685Z,5.70
2018-02-11T11:26:47.539Z,5.60
2018-02-11T11:29:15.630Z,5.60
2018-02-11T11:31:43.688Z,5.80
2018-02-11T11:34:11.756Z,5.70
2018-02-11T11:36:40.590Z,5.70
2018-02-11T11:39:08.641Z,5.70
2018-02-11T11:41:36.691Z,5.80
2018-02-11T11:44:04.752Z,5.80
2018-02-11T11:46:32.812Z,5.80
2018-02-11T11:49:01.696Z,5.80
2018-02-11T11:51:30.130Z,5.80
2018-02-11T11:53:58.154Z,5.70
2018-02-11T11:56:27.020Z,5.30
2018-02-11T11:58:55.025Z,5.30
2018-02-11T12:01:23.437Z,5.30
2018-02-11T12:03:51.464Z,5.20
2018-02-11T12:06:19.645Z,5.30
2018-02-11T12:08:47.786Z,5.30
2018-02-11T12:11:17.033Z,5.30
2018-02-11T12:13:45.098Z,5.30
2018-02-11T12:16:13.138Z,5.30
2018-02-11T12:18:42.033Z,5.20
2018-02-11T12:21:10.059Z,5.20
2018-02-11T12:23:38.126Z,5.20
2018-02-11T12:26:06.185Z,5.10
2018-02-11T12:28:34.214Z,5.20
2018-02-11T12:31:02.262Z,5.20
2018-02-11T12:33:30.430Z,5.20
2018-02-11T12:35:58.731Z,5.30
2018-02-11T12:38:26.762Z,5.30
2018-02-11T12:40:54.814Z,5.20
2018-02-11T12:43:24.511Z,5.40
2018-02-11T12:45:52.584Z,5.40
2018-02-11T12:48:20.625Z,5.30
2018-02-11T12:50:48.686Z,5.40
2018-02-11T12:53:17.552Z,5.50
2018-02-11T12:55:45.618Z,5.50
2018-02-11T12:58:13.719Z,5.50
2018-02-11T13:00:42.395Z,5.50
2018-02-11T13:03:10.452Z,5.40
2018-02-11T13:05:38.497Z,5.40
2018-02-11T13:08:06.554Z,5.40
2018-02-11T13:10:34.620Z,5.30
2018-02-11T13:13:02.661Z,5.30
2018-02-11T13:15:32.707Z,5.30
2018-02-11T13:18:01.606Z,5.40
2018-02-11T13:20:31.364Z,5.40
2018-02-11T13:22:59.428Z,5.40
2018-02-11T13:25:27.475Z,5.30
2018-02-11T13:27:55.528Z,5.20
2018-02-11T13:30:23.692Z,5.30
2018-02-11T13:32:51.707Z,5.20
2018-02-11T13:35:19.741Z,5.20
2018-02-11T13:37:47.824Z,5.10
2018-02-11T13:40:15.935Z,5.20
2018-02-11T13:42:44.198Z,5.30
2018-02-11T13:45:12.397Z,5.50
2018-02-11T13:47:40.468Z,5.50
2018-02-11T13:50:08.515Z,5.50
2018-02-11T13:52:36.630Z,5.50
2018-02-11T13:55:05.458Z,5.40
2018-02-11T13:57:33.564Z,5.40
2018-02-11T14:00:01.611Z,5.50
2018-02-11T14:02:30.498Z,5.50
2018-02-11T14:04:58.567Z,5.50
2018-02-11T14:07:27.385Z,5.60
2018-02-11T14:09:55.448Z,5.60
2018-02-11T14:12:24.267Z,5.40
2018-02-11T14:14:53.075Z,5.40
2018-02-11T14:17:21.138Z,5.40
2018-02-11T14:19:49.958Z,5.50
2018-02-11T14:22:18.009Z,5.50
2018-02-11T14:24:47.079Z,5.50
2018-02-11T14:27:15.136Z,5.40
2018-02-11T14:29:43.218Z,5.40
2018-02-11T14:32:11.280Z,5.40
2018-02-11T14:34:39.321Z,5.20
2018-02-11T14:37:07.388Z,5.20
2018-02-11T14:39:35.474Z,5.20
2018-02-11T14:42:05.277Z,5.20
2018-02-11T14:44:33.307Z,5.10
2018-02-11T14:47:01.359Z,5.20
2018-02-11T14:49:29.416Z,5.20
2018-02-11T14:51:58.277Z,5.00
2018-02-11T14:54:26.286Z,5.00
2018-02-11T14:56:54.370Z,5.10
2018-02-11T14:59:23.189Z,5.10
2018-02-11T15:01:51.244Z,5.20
2018-02-11T15:04:19.306Z,5.10
2018-02-11T15:06:47.381Z,5.20
2018-02-11T15:09:15.476Z,5.20
2018-02-11T15:11:43.543Z,5.30
2018-02-11T15:14:11.612Z,5.30
2018-02-11T15:16:39.672Z,5.20
2018-02-11T15:19:07.740Z,5.30
2018-02-11T15:21:36.564Z,5.20
2018-02-11T15:24:04.640Z,5.20
2018-02-11T15:26:32.683Z,5.30
2018-02-11T15:29:00.775Z,5.20
2018-02-11T15:31:28.819Z,5.30
2018-02-11T15:33:56.894Z,5.20
2018-02-11T15:36:24.926Z,5.30
2018-02-11T15:38:52.983Z,5.10
2018-02-11T15:41:21.029Z,5.10
2018-02-11T15:43:49.120Z,5.00
2018-02-11T15:46:17.187Z,5.00
2018-02-11T15:48:45.254Z,5.00
2018-02-11T15:51:13.295Z,4.90
2018-02-11T15:53:41.334Z,4.90
2018-02-11T15:56:09.392Z,4.90
2018-02-11T15:58:37.443Z,5.00
2018-02-11T16:01:05.498Z,5.00
2018-02-11T16:03:33.599Z,5.00
2018-02-11T16:06:01.647Z,5.00
2018-02-11T16:08:30.477Z,5.00
2018-02-11T16:10:58.513Z,5.00
2018-02-11T16:13:27.334Z,5.00
2018-02-11T16:15:55.378Z,4.90
2018-02-11T16:18:23.440Z,5.00
2018-02-11T16:20:52.674Z,5.00
2018-02-11T16:23:20.898Z,5.00
2018-02-11T16:25:49.711Z,5.00
2018-02-11T16:28:17.764Z,5.00
2018-02-11T16:30:45.819Z,4.90
2018-02-11T16:33:13.880Z,4.90
2018-02-11T16:35:41.936Z,4.90
2018-02-11T16:38:09.992Z,4.90
2018-02-11T16:40:38.064Z,4.90
2018-02-11T16:43:06.124Z,4.90
2018-02-11T16:45:34.197Z,4.90
2018-02-11T16:48:02.276Z,4.90
2018-02-11T16:50:31.632Z,4.90
2018-02-11T16:52:59.759Z,5.00
2018-02-11T16:55:27.883Z,5.00
2018-02-11T16:57:55.970Z,5.00
2018-02-11T17:00:24.102Z,4.90
2018-02-11T17:02:52.221Z,5.00
2018-02-11T17:05:20.327Z,5.00
2018-02-11T17:07:48.413Z,4.90
2018-02-11T17:10:16.508Z,4.90
2018-02-11T17:12:44.856Z,4.90
2018-02-11T17:15:13.708Z,5.00
2018-02-11T17:17:41.871Z,5.00
2018-02-11T17:20:10.060Z,5.00
2018-02-11T17:22:38.144Z,5.10
2018-02-11T17:25:06.292Z,5.00
2018-02-11T17:27:35.316Z,5.00
2018-02-11T17:30:04.281Z,4.90
2018-02-11T17:32:33.081Z,4.90
2018-02-11T17:35:01.238Z,4.80
2018-02-11T17:37:29.410Z,4.80
2018-02-11T17:39:57.595Z,4.70
2018-02-11T17:42:25.796Z,4.70
2018-02-11T17:44:53.891Z,4.70
2018-02-11T17:47:22.829Z,4.60
2018-02-11T17:49:50.933Z,4.60
2018-02-11T17:52:19.110Z,4.60
2018-02-11T17:54:47.827Z,4.70
2018-02-11T17:57:16.031Z,4.70
2018-02-11T17:59:44.171Z,4.60
2018-02-11T18:02:13.073Z,4.50
2018-02-11T18:04:41.414Z,4.50
2018-02-11T18:07:09.762Z,4.30
2018-02-11T18:09:38.248Z,4.30
2018-02-11T18:12:06.414Z,4.30
2018-02-11T18:14:35.385Z,4.30
2018-02-11T18:17:03.535Z,4.20
2018-02-11T18:19:31.770Z,4.20
2018-02-11T18:21:59.904Z,4.20
2018-02-11T18:24:28.035Z,4.20
2018-02-11T18:26:56.962Z,4.10
2018-02-11T18:29:25.223Z,4.10
2018-02-11T18:31:53.509Z,4.10
2018-02-11T18:34:22.413Z,4.20
2018-02-11T18:36:50.551Z,4.10
2018-02-11T18:39:18.852Z,4.20
2018-02-11T18:41:47.062Z,4.20
2018-02-11T18:44:16.018Z,4.20
2018-02-11T18:46:44.266Z,4.10
2018-02-11T18:49:13.184Z,4.20
2018-02-11T18:51:42.019Z,4.20
2018-02-11T18:54:10.158Z,4.30
2018-02-11T18:56:38.384Z,4.20
2018-02-11T18:59:06.559Z,4.20
2018-02-11T19:01:36.601Z,4.10
2018-02-11T19:04:07.102Z,4.10
2018-02-11T19:06:38.336Z,4.10
2018-02-11T19:09:09.430Z,4.10
2018-02-11T19:11:39.485Z,4.10
2018-02-11T19:14:27.132Z,4.10
2018-02-11T19:17:03.392Z,4.10
2018-02-11T19:19:34.515Z,4.20
2018-02-11T19:22:11.978Z,4.10
2018-02-11T19:24:41.390Z,4.20
2018-02-11T19:27:09.737Z,4.20
2018-02-11T19:29:37.787Z,4.30
2018-02-11T19:32:06.614Z,4.20
2018-02-11T19:34:34.662Z,4.10
2018-02-11T19:37:02.806Z,4.20
2018-02-11T19:39:30.831Z,4.30
2018-02-11T19:41:58.881Z,4.30
2018-02-11T19:44:26.944Z,4.20
2018-02-11T19:46:55.758Z,4.30
2018-02-11T19:49:23.823Z,4.30
2018-02-11T19:51:52.659Z,4.20
2018-02-11T19:54:20.734Z,4.20
2018-02-11T19:56:48.780Z,4.30
2018-02-11T19:59:16.854Z,4.30
2018-02-11T20:01:44.894Z,4.30
2018-02-11T20:04:13.294Z,4.30
2018-02-11T20:06:41.898Z,4.30
2018-02-11T20:09:09.955Z,4.20
2018-02-11T20:11:38.070Z,4.20
2018-02-11T20:14:06.114Z,4.20
2018-02-11T20:16:34.162Z,4.20
2018-02-11T20:19:02.238Z,4.10
2018-02-11T20:21:30.284Z,4.10
2018-02-11T20:23:58.341Z,4.20
2018-02-11T20:26:26.415Z,4.00
2018-02-11T20:28:54.459Z,4.00
2018-02-11T20:31:22.590Z,4.00
2018-02-11T20:33:50.598Z,4.10
2018-02-11T20:36:18.638Z,4.00
2018-02-11T20:38:46.695Z,3.90
2018-02-11T20:41:14.744Z,3.90
2018-02-11T20:43:42.816Z,3.90
2018-02-11T20:46:10.868Z,3.90
2018-02-11T20:48:39.202Z,3.90
2018-02-11T20:51:07.242Z,3.90
2018-02-11T20:53:35.316Z,3.90
2018-02-11T20:56:03.358Z,3.90
2018-02-11T20:58:31.435Z,3.90
2018-02-11T21:00:59.520Z,3.90
2018-02-11T21:03:27.608Z,3.90
2018-02-11T21:05:55.664Z,3.90
2018-02-11T21:08:23.787Z,4.00
2018-02-11T21:10:51.848Z,3.90
2018-02-11T21:13:19.887Z,3.90
2018-02-11T21:15:47.948Z,3.90
2018-02-11T21:18:16.022Z,3.90
2018-02-11T21:20:45.099Z,3.90
2018-02-11T21:23:13.755Z,3.90
2018-02-11T21:25:41.944Z,3.80
2018-02-11T21:28:10.015Z,3.80
2018-02-11T21:30:38.102Z,3.80
2018-02-11T21:33:06.152Z,3.80
2018-02-11T21:35:34.339Z,3.80
2018-02-11T21:38:02.430Z,3.80
2018-02-11T21:40:30.472Z,3.80
2018-02-11T21:42:58.627Z,3.70
2018-02-11T21:45:26.700Z,3.70
2018-02-11T21:47:54.755Z,3.70
2018-02-11T21:50:22.873Z,3.70
2018-02-11T21:52:50.915Z,3.80
2018-02-11T21:55:18.970Z,3.80
2018-02-11T21:57:47.036Z,3.70
2018-02-11T22:00:15.214Z,3.70
2018-02-11T22:02:43.298Z,3.70
2018-02-11T22:05:11.355Z,3.80
2018-02-11T22:07:39.399Z,3.80
2018-02-11T22:10:07.591Z,3.80
2018-02-11T22:12:35.743Z,3.70
2018-02-11T22:15:03.838Z,3.70
2018-02-11T22:17:31.886Z,3.70
2018-02-11T22:19:59.933Z,3.60
2018-02-11T22:22:29.003Z,3.60
2018-02-11T22:24:57.134Z,3.60
2018-02-11T22:27:25.175Z,3.50
2018-02-11T22:29:53.991Z,3.40
2018-02-11T22:32:22.869Z,3.40
2018-02-11T22:34:50.892Z,3.50
2018-02-11T22:37:18.985Z,3.50
2018-02-11T22:39:47.056Z,3.50
2018-02-11T22:42:15.087Z,3.50
2018-02-11T22:44:43.292Z,3.40
2018-02-11T22:47:12.118Z,3.30
2018-02-11T22:49:41.630Z,3.30
2018-02-11T22:52:10.556Z,3.40
2018-02-11T22:54:38.604Z,3.30
2018-02-11T22:57:07.574Z,3.40
2018-02-11T22:59:35.646Z,3.40
2018-02-11T23:02:03.710Z,3.40
2018-02-11T23:04:31.778Z,3.50
2018-02-11T23:06:59.853Z,3.50
2018-02-11T23:09:28.675Z,3.40
2018-02-11T23:11:56.759Z,3.50
2018-02-11T23:14:24.811Z,3.40
2018-02-11T23:16:53.627Z,3.40
2018-02-11T23:19:21.682Z,3.30
2018-02-11T23:21:49.723Z,3.40
2018-02-11T23:24:17.784Z,3.40
2018-02-11T23:26:45.842Z,3.40
2018-02-11T23:29:14.658Z,3.50
2018-02-11T23:31:42.706Z,3.50
2018-02-11T23:34:10.785Z,3.40
2018-02-11T23:36:39.185Z,3.40
2018-02-11T23:39:07.230Z,3.50
2018-02-11T23:41:35.369Z,3.50
2018-02-11T23:44:04.250Z,3.50
2018-02-11T23:46:32.297Z,3.50
2018-02-11T23:49:00.413Z,3.50
2018-02-11T23:51:28.466Z,3.50
2018-02-11T23:53:56.531Z,3.50
2018-02-11T23:56:24.574Z,3.50
2018-02-11T23:58:52.704Z,3.50
